createdAt,value
2019-05-29T00:02:01.171Z,11.80
2019-05-29T00:04:28.099Z,11.80
2019-05-29T00:06:54.773Z,11.90
2019-05-29T00:09:21.750Z,11.90
2019-05-29T00:11:48.440Z,11.80
2019-05-29T00:14:24.655Z,11.80
2019-05-29T00:16:44.706Z,11.80
2019-05-29T00:19:12.637Z,11.80
2019-05-29T00:21:39.437Z,11.70
2019-05-29T00:24:06.500Z,11.70
2019-05-29T00:26:33.184Z,11.70
2019-05-29T00:28:59.882Z,11.70
2019-05-29T00:31:26.601Z,11.70
2019-05-29T00:33:53.287Z,11.70
2019-05-29T00:36:20.010Z,11.70
2019-05-29T00:38:47.037Z,11.70
2019-05-29T00:41:13.690Z,11.70
2019-05-29T00:43:40.736Z,11.70
2019-05-29T00:46:07.444Z,11.70
2019-05-29T00:48:34.120Z,11.70
2019-05-29T00:51:00.854Z,11.80
2019-05-29T00:53:27.542Z,11.80
2019-05-29T00:55:54.262Z,11.90
2019-05-29T00:58:20.957Z,11.90
2019-05-29T01:00:47.926Z,11.90
2019-05-29T01:03:15.798Z,11.90
2019-05-29T01:05:42.963Z,11.90
2019-05-29T01:08:10.467Z,11.90
2019-05-29T01:10:37.372Z,11.90
2019-05-29T01:13:04.152Z,11.90
2019-05-29T01:15:31.231Z,12.00
2019-05-29T01:17:58.320Z,12.00
2019-05-29T01:20:25.063Z,11.90
2019-05-29T01:22:51.780Z,11.80
2019-05-29T01:25:18.844Z,11.80
2019-05-29T01:27:45.651Z,11.80
2019-05-29T01:30:13.199Z,11.90
2019-05-29T01:32:40.315Z,11.90
2019-05-29T01:35:07.623Z,11.80
2019-05-29T01:37:34.428Z,11.80
2019-05-29T01:40:01.233Z,11.80
2019-05-29T01:42:27.952Z,11.80
2019-05-29T01:45:07.294Z,11.80
2019-05-29T01:47:23.695Z,11.80
2019-05-29T01:49:50.523Z,11.90
2019-05-29T01:52:17.620Z,11.80
2019-05-29T01:54:44.738Z,11.70
2019-05-29T01:57:11.434Z,11.70
2019-05-29T01:59:38.133Z,11.70
2019-05-29T02:02:04.942Z,11.70
2019-05-29T02:04:31.673Z,11.70
2019-05-29T02:06:58.642Z,11.80
2019-05-29T02:09:25.614Z,11.70
2019-05-29T02:11:52.321Z,11.70
2019-05-29T02:14:20.459Z,11.60
2019-05-29T02:16:47.336Z,11.60
2019-05-29T02:19:14.306Z,11.60
2019-05-29T02:21:41.369Z,11.70
2019-05-29T02:24:08.381Z,11.70
2019-05-29T02:26:35.089Z,11.70
2019-05-29T02:29:01.863Z,11.70
2019-05-29T02:31:28.937Z,11.70
2019-05-29T02:33:56.141Z,11.70
2019-05-29T02:36:24.361Z,11.70
2019-05-29T02:38:51.405Z,11.70
2019-05-29T02:41:19.095Z,11.70
2019-05-29T02:43:47.432Z,11.70
2019-05-29T02:46:14.117Z,11.70
2019-05-29T02:48:40.839Z,11.70
2019-05-29T02:51:11.478Z,11.60
2019-05-29T02:53:36.523Z,11.60
2019-05-29T02:56:03.565Z,11.60
2019-05-29T02:58:31.771Z,11.70
2019-05-29T03:00:59.029Z,11.60
2019-05-29T03:03:28.883Z,11.50
2019-05-29T03:05:55.584Z,11.50
2019-05-29T03:08:22.469Z,11.50
2019-05-29T03:10:50.301Z,11.50
2019-05-29T03:13:17.572Z,11.60
2019-05-29T03:15:44.625Z,11.60
2019-05-29T03:18:11.583Z,11.60
2019-05-29T03:20:38.329Z,11.70
2019-05-29T03:23:05.653Z,11.80
2019-05-29T03:25:32.901Z,11.80
2019-05-29T03:27:59.702Z,11.80
2019-05-29T03:30:30.352Z,11.80
2019-05-29T03:32:55.285Z,11.90
2019-05-29T03:35:21.969Z,11.90
2019-05-29T03:37:48.690Z,11.90
2019-05-29T03:40:15.741Z,11.90
2019-05-29T03:42:42.423Z,12.00
2019-05-29T03:45:09.322Z,11.90
2019-05-29T03:47:37.163Z,11.90
2019-05-29T03:50:04.857Z,11.90
2019-05-29T03:52:32.684Z,12.00
2019-05-29T03:55:00.174Z,11.90
2019-05-29T03:57:27.646Z,12.00
2019-05-29T03:59:55.330Z,12.10
2019-05-29T04:02:22.303Z,12.00
2019-05-29T04:04:49.305Z,12.00
2019-05-29T04:07:16.197Z,11.90
2019-05-29T04:09:42.910Z,12.00
2019-05-29T04:12:09.952Z,12.20
2019-05-29T04:14:37.862Z,12.00
2019-05-29T04:17:05.626Z,12.10
2019-05-29T04:19:34.851Z,12.10
2019-05-29T04:22:08.009Z,12.10
2019-05-29T04:24:38.252Z,12.10
2019-05-29T04:27:08.377Z,12.10
2019-05-29T04:29:36.257Z,12.10
2019-05-29T04:32:03.372Z,12.20
2019-05-29T04:34:31.564Z,12.20
2019-05-29T04:36:58.639Z,12.20
2019-05-29T04:39:25.577Z,12.40
2019-05-29T04:41:52.538Z,12.50
2019-05-29T04:44:19.502Z,12.60
2019-05-29T04:46:46.437Z,12.90
2019-05-29T04:49:13.363Z,13.00
2019-05-29T04:51:40.373Z,13.20
2019-05-29T04:54:07.052Z,14.40
2019-05-29T04:56:34.875Z,16.10
2019-05-29T04:59:01.969Z,17.30
2019-05-29T05:01:29.223Z,16.30
2019-05-29T05:03:56.233Z,17.30
2019-05-29T05:06:23.210Z,18.00
2019-05-29T05:08:49.899Z,17.00
2019-05-29T05:11:16.708Z,15.60
2019-05-29T05:13:43.738Z,15.10
2019-05-29T05:16:10.439Z,14.80
2019-05-29T05:18:37.942Z,14.30
2019-05-29T05:21:04.962Z,14.20
2019-05-29T05:23:31.995Z,14.00
2019-05-29T05:25:58.995Z,13.80
2019-05-29T05:28:25.664Z,13.70
2019-05-29T05:30:52.393Z,13.60
2019-05-29T05:33:19.078Z,13.60
2019-05-29T05:35:45.760Z,13.40
2019-05-29T05:38:12.800Z,13.40
2019-05-29T05:40:42.931Z,13.20
2019-05-29T05:43:23.175Z,13.10
2019-05-29T05:45:37.619Z,13.20
2019-05-29T05:48:04.444Z,13.20
2019-05-29T05:50:31.483Z,13.10
2019-05-29T05:52:58.184Z,13.10
2019-05-29T05:55:25.000Z,13.00
2019-05-29T05:57:51.677Z,13.30
2019-05-29T06:00:29.406Z,13.20
2019-05-29T06:02:56.956Z,13.30
2019-05-29T06:05:23.662Z,13.40
2019-05-29T06:07:50.380Z,13.40
2019-05-29T06:10:17.343Z,13.40
2019-05-29T06:12:44.189Z,13.50
2019-05-29T06:15:11.722Z,13.80
2019-05-29T06:17:38.916Z,13.70
2019-05-29T06:20:06.342Z,14.00
2019-05-29T06:22:33.060Z,14.50
2019-05-29T06:24:59.770Z,14.60
2019-05-29T06:27:26.715Z,15.00
2019-05-29T06:29:53.713Z,14.70
2019-05-29T06:32:20.404Z,14.90
2019-05-29T06:34:47.106Z,15.00
2019-05-29T06:37:13.782Z,15.60
2019-05-29T06:39:41.796Z,16.10
2019-05-29T06:42:08.554Z,16.30
2019-05-29T06:44:36.696Z,16.00
2019-05-29T06:47:04.185Z,15.80
2019-05-29T06:49:30.951Z,16.10
2019-05-29T06:51:58.270Z,16.40
2019-05-29T06:54:25.277Z,16.80
2019-05-29T06:56:51.972Z,16.70
2019-05-29T06:59:19.012Z,16.70
2019-05-29T07:01:45.950Z,16.90
2019-05-29T07:04:12.875Z,17.00
2019-05-29T07:06:40.575Z,17.20
2019-05-29T07:09:08.324Z,18.50
2019-05-29T07:11:35.399Z,20.80
2019-05-29T07:14:02.440Z,23.20
2019-05-29T07:16:43.803Z,24.50
2019-05-29T07:21:26.972Z,29.10
2019-05-29T07:23:54.093Z,30.90
2019-05-29T07:26:21.172Z,30.70
2019-05-29T07:29:06.361Z,33.70
2019-05-29T07:31:17.253Z,32.10
2019-05-29T07:33:45.183Z,32.90
2019-05-29T07:36:12.198Z,32.70
2019-05-29T07:38:39.642Z,30.60
2019-05-29T07:41:07.127Z,31.60
2019-05-29T07:43:33.811Z,31.40
2019-05-29T07:46:00.500Z,32.80
2019-05-29T07:48:27.434Z,32.30
2019-05-29T07:51:06.321Z,33.70
2019-05-29T07:53:23.254Z,33.60
2019-05-29T07:55:49.951Z,33.30
2019-05-29T07:58:16.631Z,32.70
2019-05-29T08:01:05.400Z,31.10
2019-05-29T08:03:13.106Z,29.80
2019-05-29T08:05:41.467Z,28.70
2019-05-29T08:08:09.128Z,29.10
2019-05-29T08:10:36.135Z,30.50
2019-05-29T08:13:02.858Z,31.70
2019-05-29T08:15:29.941Z,32.40
2019-05-29T08:17:56.987Z,34.80
2019-05-29T08:20:24.083Z,33.90
2019-05-29T08:22:51.268Z,32.80
2019-05-29T08:25:18.285Z,32.70
2019-05-29T08:27:46.575Z,33.40
2019-05-29T08:30:13.749Z,33.30
2019-05-29T08:32:40.902Z,34.50
2019-05-29T08:35:08.352Z,34.00
2019-05-29T08:37:35.696Z,34.70
2019-05-29T08:40:03.181Z,34.70
2019-05-29T08:42:30.132Z,34.90
2019-05-29T08:44:56.835Z,37.70
2019-05-29T08:47:23.928Z,38.70
2019-05-29T08:49:53.994Z,33.00
2019-05-29T08:52:19.779Z,31.10
2019-05-29T08:54:46.467Z,34.80
2019-05-29T08:57:13.814Z,31.00
2019-05-29T08:59:42.071Z,28.20
2019-05-29T09:02:09.011Z,25.90
2019-05-29T09:04:36.014Z,29.30
2019-05-29T09:07:03.011Z,31.80
2019-05-29T09:09:29.712Z,31.30
2019-05-29T09:11:56.406Z,34.10
2019-05-29T09:14:23.166Z,33.90
2019-05-29T09:16:50.016Z,35.00
2019-05-29T09:19:18.866Z,35.50
2019-05-29T09:21:46.587Z,33.50
2019-05-29T09:24:14.711Z,34.20
2019-05-29T09:26:42.424Z,31.60
2019-05-29T09:29:09.435Z,30.10
2019-05-29T09:31:36.132Z,27.20
2019-05-29T09:34:03.431Z,25.30
2019-05-29T09:36:30.214Z,23.30
2019-05-29T09:38:56.922Z,22.60
2019-05-29T09:41:23.702Z,22.20
2019-05-29T09:43:59.293Z,21.50
2019-05-29T09:46:20.299Z,21.70
2019-05-29T09:48:50.130Z,21.90
2019-05-29T09:51:21.124Z,22.20
2019-05-29T09:53:46.187Z,21.90
2019-05-29T09:56:13.254Z,22.40
2019-05-29T09:58:40.418Z,21.60
2019-05-29T10:01:21.424Z,21.70
2019-05-29T10:03:36.421Z,21.40
2019-05-29T10:06:04.261Z,21.80
2019-05-29T10:08:31.289Z,22.00
2019-05-29T10:11:07.891Z,21.60
2019-05-29T10:13:27.172Z,21.50
2019-05-29T10:15:55.957Z,20.70
2019-05-29T10:18:31.809Z,20.60
2019-05-29T10:20:51.362Z,20.10
2019-05-29T10:23:20.108Z,20.30
2019-05-29T10:25:47.324Z,20.60
2019-05-29T10:28:14.567Z,20.70
2019-05-29T10:30:42.235Z,21.00
2019-05-29T10:33:09.482Z,20.80
2019-05-29T10:35:36.655Z,20.70
2019-05-29T10:38:04.377Z,21.10
2019-05-29T10:40:31.480Z,21.50
2019-05-29T10:42:58.162Z,22.00
2019-05-29T10:45:25.051Z,22.30
2019-05-29T10:47:52.811Z,22.40
2019-05-29T10:50:21.604Z,22.30
2019-05-29T10:52:48.588Z,22.30
2019-05-29T10:55:18.912Z,21.80
2019-05-29T10:57:46.649Z,21.60
2019-05-29T11:00:14.007Z,21.30
2019-05-29T11:02:41.031Z,21.60
2019-05-29T11:05:07.913Z,21.60
2019-05-29T11:07:34.714Z,21.40
2019-05-29T11:10:01.609Z,21.40
2019-05-29T11:12:28.380Z,21.40
2019-05-29T11:14:55.094Z,21.20
2019-05-29T11:17:22.094Z,21.10
2019-05-29T11:19:49.264Z,20.80
2019-05-29T11:22:25.690Z,21.10
2019-05-29T11:24:45.345Z,20.50
2019-05-29T11:27:12.020Z,20.50
2019-05-29T11:29:39.095Z,20.70
2019-05-29T11:32:06.035Z,20.70
2019-05-29T11:34:32.836Z,21.10
2019-05-29T11:36:59.875Z,21.20
2019-05-29T11:39:26.994Z,21.20
2019-05-29T11:41:54.739Z,21.60
2019-05-29T11:44:21.822Z,21.70
2019-05-29T11:46:50.013Z,21.40
2019-05-29T11:49:17.635Z,21.40
2019-05-29T11:51:44.587Z,21.50
2019-05-29T11:54:11.834Z,21.40
2019-05-29T11:56:38.792Z,21.10
2019-05-29T11:59:05.969Z,21.40
2019-05-29T12:01:48.954Z,21.70
2019-05-29T12:04:24.115Z,21.80
2019-05-29T12:06:30.204Z,21.60
2019-05-29T12:08:57.964Z,21.30
2019-05-29T12:11:24.986Z,21.10
2019-05-29T12:13:51.786Z,21.80
2019-05-29T12:16:19.292Z,21.80
2019-05-29T12:18:46.082Z,21.70
2019-05-29T12:21:13.108Z,21.70
2019-05-29T12:23:40.144Z,21.50
2019-05-29T12:26:19.987Z,21.60
2019-05-29T12:28:35.780Z,21.60
2019-05-29T12:31:03.519Z,21.70
2019-05-29T12:33:30.653Z,21.10
2019-05-29T12:35:57.590Z,20.20
2019-05-29T12:38:24.285Z,20.10
2019-05-29T12:40:51.600Z,19.50
2019-05-29T12:43:27.142Z,19.60
2019-05-29T12:45:48.150Z,19.50
2019-05-29T12:48:16.279Z,19.40
2019-05-29T12:50:43.506Z,19.60
2019-05-29T12:53:26.031Z,19.60
2019-05-29T12:55:39.117Z,19.90
2019-05-29T12:58:06.099Z,19.80
2019-05-29T13:00:32.991Z,19.90
2019-05-29T13:03:00.799Z,20.00
2019-05-29T13:05:27.835Z,19.70
2019-05-29T13:07:56.643Z,19.30
2019-05-29T13:10:30.683Z,19.50
2019-05-29T13:12:54.200Z,19.90
2019-05-29T13:15:22.216Z,20.20
2019-05-29T13:17:48.902Z,20.20
2019-05-29T13:20:21.760Z,20.00
2019-05-29T13:22:44.912Z,20.00
2019-05-29T13:25:12.334Z,20.00
2019-05-29T13:27:39.196Z,20.00
2019-05-29T13:30:08.386Z,20.20
2019-05-29T13:32:35.787Z,20.00
2019-05-29T13:35:04.295Z,19.50
2019-05-29T13:37:31.088Z,19.40
2019-05-29T13:39:57.984Z,19.10
2019-05-29T13:42:25.253Z,19.30
2019-05-29T13:44:53.371Z,19.60
2019-05-29T13:47:20.532Z,19.60
2019-05-29T13:49:47.239Z,20.00
2019-05-29T13:52:13.926Z,20.20
2019-05-29T13:54:41.106Z,20.50
2019-05-29T13:57:08.778Z,20.70
2019-05-29T13:59:35.987Z,21.10
2019-05-29T14:02:04.711Z,21.10
2019-05-29T14:04:32.106Z,21.30
2019-05-29T14:07:00.298Z,21.30
2019-05-29T14:09:27.859Z,21.60
2019-05-29T14:11:54.923Z,21.40
2019-05-29T14:14:21.601Z,21.40
2019-05-29T14:16:48.591Z,20.90
2019-05-29T14:19:15.287Z,20.90
2019-05-29T14:21:42.283Z,20.80
2019-05-29T14:24:26.256Z,20.80
2019-05-29T14:26:37.991Z,20.30
2019-05-29T14:29:05.960Z,20.60
2019-05-29T14:31:33.241Z,20.70
2019-05-29T14:34:00.921Z,20.60
2019-05-29T14:36:28.058Z,20.70
2019-05-29T14:38:54.759Z,20.90
2019-05-29T14:41:21.793Z,21.00
2019-05-29T14:43:48.892Z,21.00
2019-05-29T14:46:15.582Z,20.60
2019-05-29T14:48:42.588Z,20.30
2019-05-29T14:51:10.522Z,20.30
2019-05-29T14:53:37.379Z,20.40
2019-05-29T14:56:04.526Z,20.50
2019-05-29T14:58:31.525Z,20.20
2019-05-29T15:00:58.309Z,20.50
2019-05-29T15:03:24.997Z,20.80
2019-05-29T15:05:51.922Z,20.70
2019-05-29T15:08:18.595Z,20.40
2019-05-29T15:10:45.285Z,20.40
2019-05-29T15:13:13.327Z,20.50
2019-05-29T15:15:40.905Z,20.50
2019-05-29T15:18:08.838Z,20.30
2019-05-29T15:20:36.454Z,20.00
2019-05-29T15:23:05.096Z,20.50
2019-05-29T15:25:31.908Z,20.80
2019-05-29T15:27:58.608Z,21.00
2019-05-29T15:30:25.304Z,21.30
2019-05-29T15:32:52.237Z,21.40
2019-05-29T15:35:20.075Z,21.50
2019-05-29T15:37:47.261Z,21.50
2019-05-29T15:40:14.990Z,21.40
2019-05-29T15:42:41.870Z,21.10
2019-05-29T15:45:09.873Z,20.70
2019-05-29T15:47:36.976Z,20.10
2019-05-29T15:50:04.076Z,19.50
2019-05-29T15:52:30.760Z,19.10
2019-05-29T15:54:57.448Z,19.30
2019-05-29T15:57:24.473Z,19.20
2019-05-29T15:59:51.529Z,19.10
2019-05-29T16:02:18.322Z,19.10
2019-05-29T16:04:45.171Z,19.30
2019-05-29T16:07:12.001Z,19.20
2019-05-29T16:09:39.063Z,19.40
2019-05-29T16:12:05.897Z,19.60
2019-05-29T16:14:32.955Z,19.50
2019-05-29T16:16:59.960Z,19.50
2019-05-29T16:19:27.265Z,19.40
2019-05-29T16:21:54.375Z,19.40
2019-05-29T16:24:21.057Z,19.40
2019-05-29T16:26:47.767Z,19.40
2019-05-29T16:29:17.314Z,19.30
2019-05-29T16:31:43.428Z,19.30
2019-05-29T16:34:10.185Z,19.50
2019-05-29T16:36:37.433Z,19.50
2019-05-29T16:39:06.399Z,19.60
2019-05-29T16:41:33.088Z,19.60
2019-05-29T16:43:59.828Z,19.50
2019-05-29T16:46:26.810Z,19.20
2019-05-29T16:48:53.487Z,19.30
2019-05-29T16:51:20.928Z,19.30
2019-05-29T16:53:48.044Z,19.10
2019-05-29T16:56:14.832Z,19.10
2019-05-29T16:58:42.163Z,19.10
2019-05-29T17:01:09.137Z,19.20
2019-05-29T17:03:35.844Z,19.10
2019-05-29T17:06:02.763Z,19.30
2019-05-29T17:08:29.457Z,19.40
2019-05-29T17:10:56.180Z,19.40
2019-05-29T17:13:23.152Z,19.30
2019-05-29T17:15:49.852Z,19.10
2019-05-29T17:18:16.549Z,18.90
2019-05-29T17:20:44.276Z,18.90
2019-05-29T17:23:12.168Z,18.80
2019-05-29T17:25:39.154Z,18.90
2019-05-29T17:28:06.117Z,19.00
2019-05-29T17:30:33.404Z,19.20
2019-05-29T17:33:00.502Z,19.40
2019-05-29T17:35:27.414Z,19.40
2019-05-29T17:37:54.484Z,19.40
2019-05-29T17:40:21.531Z,19.30
2019-05-29T17:42:48.662Z,19.00
2019-05-29T17:45:19.946Z,18.60
2019-05-29T17:47:44.726Z,18.40
2019-05-29T17:50:12.385Z,18.30
2019-05-29T17:52:39.264Z,18.20
2019-05-29T17:55:06.772Z,18.10
2019-05-29T17:57:33.464Z,18.10
2019-05-29T18:00:00.452Z,18.20
2019-05-29T18:02:27.905Z,18.20
2019-05-29T18:04:54.604Z,18.10
2019-05-29T18:07:22.536Z,18.10
2019-05-29T18:09:49.481Z,18.10
2019-05-29T18:12:17.135Z,18.20
2019-05-29T18:14:44.470Z,18.20
2019-05-29T18:17:11.379Z,18.20
2019-05-29T18:19:38.368Z,18.10
2019-05-29T18:22:05.052Z,18.10
2019-05-29T18:24:32.068Z,18.00
2019-05-29T18:26:59.319Z,18.00
2019-05-29T18:29:26.768Z,17.90
2019-05-29T18:31:53.801Z,17.70
2019-05-29T18:34:20.875Z,17.60
2019-05-29T18:36:48.007Z,17.50
2019-05-29T18:39:14.902Z,17.50
2019-05-29T18:41:41.818Z,17.40
2019-05-29T18:44:08.602Z,17.30
2019-05-29T18:46:38.086Z,17.30
2019-05-29T18:49:04.174Z,17.20
2019-05-29T18:51:31.005Z,17.20
2019-05-29T18:53:58.008Z,17.20
2019-05-29T18:56:26.225Z,17.30
2019-05-29T18:58:53.408Z,17.20
2019-05-29T19:01:21.518Z,17.10
2019-05-29T19:03:48.616Z,17.10
2019-05-29T19:06:15.537Z,17.00
2019-05-29T19:08:42.438Z,16.90
2019-05-29T19:11:09.577Z,16.80
2019-05-29T19:13:36.242Z,16.60
2019-05-29T19:16:03.146Z,16.60
2019-05-29T19:18:30.242Z,16.40
2019-05-29T19:20:57.364Z,16.40
2019-05-29T19:23:24.675Z,16.20
2019-05-29T19:25:51.514Z,16.30
2019-05-29T19:28:18.219Z,16.10
2019-05-29T19:30:45.011Z,16.00
2019-05-29T19:33:11.841Z,15.60
2019-05-29T19:35:38.504Z,15.40
2019-05-29T19:38:05.307Z,15.30
2019-05-29T19:40:32.413Z,15.10
2019-05-29T19:42:59.476Z,15.00
2019-05-29T19:45:26.589Z,14.90
2019-05-29T19:47:53.672Z,14.70
2019-05-29T19:50:20.604Z,14.70
2019-05-29T19:52:47.317Z,14.60
2019-05-29T19:55:17.856Z,14.60
2019-05-29T19:57:55.592Z,14.40
2019-05-29T20:00:14.448Z,14.30
2019-05-29T20:02:41.176Z,14.20
2019-05-29T20:05:08.502Z,14.00
2019-05-29T20:07:35.639Z,14.00
2019-05-29T20:10:02.959Z,13.80
2019-05-29T20:12:29.934Z,13.70
2019-05-29T20:14:56.644Z,13.80
2019-05-29T20:17:23.460Z,13.70
2019-05-29T20:19:50.585Z,13.60
2019-05-29T20:22:18.360Z,13.50
2019-05-29T20:24:45.220Z,13.50
2019-05-29T20:27:12.036Z,13.30
2019-05-29T20:29:38.992Z,13.40
2019-05-29T20:32:06.038Z,13.30
2019-05-29T20:34:32.812Z,13.20
2019-05-29T20:36:59.802Z,13.10
2019-05-29T20:39:26.830Z,13.10
2019-05-29T20:41:53.622Z,13.20
2019-05-29T20:44:20.680Z,13.20
2019-05-29T20:46:47.605Z,13.20
2019-05-29T20:49:14.270Z,13.10
2019-05-29T20:51:42.255Z,13.10
2019-05-29T20:54:09.366Z,13.00
2019-05-29T20:56:37.672Z,12.90
2019-05-29T20:59:04.496Z,12.90
2019-05-29T21:01:32.163Z,12.90
2019-05-29T21:03:59.327Z,12.90
2019-05-29T21:06:26.012Z,12.90
2019-05-29T21:08:52.999Z,12.90
2019-05-29T21:11:19.709Z,12.80
2019-05-29T21:13:46.782Z,12.80
2019-05-29T21:16:13.463Z,12.80
2019-05-29T21:18:42.073Z,12.80
2019-05-29T21:21:08.948Z,12.60
2019-05-29T21:23:36.338Z,12.60
2019-05-29T21:26:03.713Z,12.80
2019-05-29T21:28:39.776Z,13.00
2019-05-29T21:30:59.637Z,13.10
2019-05-29T21:33:26.664Z,13.20
2019-05-29T21:35:53.390Z,13.30
2019-05-29T21:38:20.072Z,13.20
2019-05-29T21:40:47.140Z,13.00
2019-05-29T21:43:13.822Z,13.00
2019-05-29T21:45:41.035Z,12.80
2019-05-29T21:48:07.816Z,12.70
2019-05-29T21:50:34.643Z,12.70
2019-05-29T21:53:01.575Z,12.70
2019-05-29T21:55:28.595Z,12.60
2019-05-29T21:57:55.439Z,12.50
2019-05-29T22:00:32.431Z,12.50
2019-05-29T22:02:59.147Z,12.40
2019-05-29T22:05:26.166Z,12.40
2019-05-29T22:07:52.896Z,12.40
2019-05-29T22:10:19.808Z,12.50
2019-05-29T22:12:47.384Z,12.40
2019-05-29T22:15:15.206Z,12.30
2019-05-29T22:17:41.977Z,12.30
2019-05-29T22:20:08.898Z,12.10
2019-05-29T22:22:35.815Z,12.10
2019-05-29T22:25:03.232Z,12.00
2019-05-29T22:27:30.225Z,12.10
2019-05-29T22:29:57.353Z,12.20
2019-05-29T22:32:24.273Z,12.10
2019-05-29T22:34:52.149Z,12.20
2019-05-29T22:37:19.562Z,12.20
2019-05-29T22:39:46.278Z,12.20
2019-05-29T22:42:13.343Z,12.30
2019-05-29T22:44:40.159Z,12.30
2019-05-29T22:47:06.881Z,12.40
2019-05-29T22:49:33.883Z,12.40
2019-05-29T22:52:02.106Z,12.60
2019-05-29T22:54:29.130Z,12.40
2019-05-29T22:56:56.132Z,12.40
2019-05-29T22:59:31.387Z,12.50
2019-05-29T23:01:52.046Z,12.50
2019-05-29T23:04:18.888Z,12.60
2019-05-29T23:06:45.691Z,12.60
2019-05-29T23:09:12.695Z,12.50
2019-05-29T23:11:39.404Z,12.40
2019-05-29T23:14:06.175Z,12.30
2019-05-29T23:16:32.884Z,12.10
2019-05-29T23:19:00.627Z,12.10
2019-05-29T23:21:27.466Z,12.00
2019-05-29T23:23:55.370Z,12.00
2019-05-29T23:26:22.844Z,12.10
2019-05-29T23:28:49.798Z,12.10
2019-05-29T23:31:16.664Z,12.10
2019-05-29T23:33:43.584Z,12.10
2019-05-29T23:36:10.267Z,12.10
2019-05-29T23:38:37.009Z,12.10
2019-05-29T23:41:04.232Z,12.20
2019-05-29T23:43:31.056Z,12.30
2019-05-29T23:45:59.405Z,12.50
2019-05-29T23:48:26.314Z,12.50
2019-05-29T23:50:53.647Z,12.60
2019-05-29T23:53:20.365Z,12.50
2019-05-29T23:55:47.084Z,12.40
2019-05-29T23:58:13.801Z,12.40
